Time;durP1;ratioP1;P1;durP2;ratioP2;P2;SDS_P1;SDS_P2;PMS_P1;PMS_P2;Temp;Humidity;BMP_temperature;BMP_pressure;BME280_temperature;BME280_humidity;BME280_pressure;Samples;Min_cycle;Max_cycle;Signal;HPM_P1;HPM_P2
2023/05/28 00:00:56;;;;;;;8.93;4.45;;;21.90;66.40;;;;;;4968787;28;20027;-55
2023/05/28 00:03:23;;;;;;;6.75;4.22;;;21.80;66.50;;;;;;4968654;28;20031;-55
2023/05/28 00:05:49;;;;;;;9.05;4.53;;;21.80;66.60;;;;;;4967089;28;20039;-55
2023/05/28 00:08:15;;;;;;;6.15;4.57;;;21.70;66.70;;;;;;4968250;28;20033;-55
2023/05/28 00:10:41;;;;;;;7.18;4.45;;;21.70;66.80;;;;;;4966964;29;20035;-55
2023/05/28 00:13:06;;;;;;;6.78;4.22;;;21.60;66.90;;;;;;4968154;28;20053;-55
2023/05/28 00:15:32;;;;;;;7.78;4.90;;;21.60;66.90;;;;;;4967803;29;20551;-55
2023/05/28 00:17:57;;;;;;;5.25;4.15;;;21.60;67.10;;;;;;4966677;29;20507;-55
2023/05/28 00:20:25;;;;;;;8.38;4.53;;;21.50;67.10;;;;;;4966754;28;20400;-55
2023/05/28 00:22:51;;;;;;;7.15;4.90;;;21.50;67.20;;;;;;4966638;29;20082;-55
2023/05/28 00:25:16;;;;;;;7.38;4.45;;;21.40;67.30;;;;;;4965801;28;20039;-55
2023/05/28 00:27:42;;;;;;;8.48;4.30;;;21.40;67.30;;;;;;4968134;29;20047;-55
2023/05/28 00:30:07;;;;;;;11.75;4.47;;;21.40;67.50;;;;;;4966234;28;20027;-55
2023/05/28 00:32:33;;;;;;;7.40;4.40;;;21.30;67.50;;;;;;4982509;28;20042;-55
2023/05/28 00:34:58;;;;;;;7.38;4.30;;;21.30;67.70;;;;;;4950121;29;20039;-55
2023/05/28 00:37:24;;;;;;;13.38;5.22;;;21.30;67.70;;;;;;4966343;29;20035;-55
2023/05/28 00:39:50;;;;;;;7.88;4.85;;;21.20;67.80;;;;;;4967643;28;20217;-55
2023/05/28 00:42:15;;;;;;;10.30;4.80;;;21.20;67.70;;;;;;4967606;29;20131;-55
2023/05/28 00:44:42;;;;;;;6.80;4.30;;;21.20;67.80;;;;;;4967745;29;20031;-55
2023/05/28 00:47:07;;;;;;;6.45;4.45;;;21.10;68.00;;;;;;4966526;29;20043;-55
2023/05/28 00:49:33;;;;;;;11.10;4.63;;;21.10;68.00;;;;;;4966394;29;20098;-55
2023/05/28 00:51:58;;;;;;;9.98;4.78;;;21.10;68.10;;;;;;4966364;29;20027;-55
2023/05/28 00:54:24;;;;;;;8.52;4.55;;;21.10;68.20;;;;;;4965855;28;20031;-55
2023/05/28 00:56:51;;;;;;;8.15;4.88;;;21.00;68.10;;;;;;4966216;28;20050;-55
2023/05/28 00:59:17;;;;;;;7.45;4.30;;;21.00;68.10;;;;;;4965942;28;20408;-55
2023/05/28 01:01:42;;;;;;;6.90;4.22;;;21.00;68.20;;;;;;4965965;28;20027;-55
2023/05/28 01:04:08;;;;;;;8.85;4.45;;;20.90;68.30;;;;;;4966083;28;20027;-55
2023/05/28 01:06:37;;;;;;;9.02;4.90;;;20.90;68.30;;;;;;4981568;28;20031;-55
2023/05/28 01:09:06;;;;;;;8.52;4.35;;;20.90;69.10;;;;;;4965990;29;20046;-55
2023/05/28 01:11:31;;;;;;;7.57;4.50;;;20.90;68.50;;;;;;4965847;29;20081;-55
2023/05/28 01:13:57;;;;;;;8.70;4.63;;;20.80;68.50;;;;;;4965836;29;20031;-55
2023/05/28 01:16:22;;;;;;;6.25;4.28;;;20.80;68.50;;;;;;4966839;28;20031;-54
2023/05/28 01:18:48;;;;;;;7.55;4.47;;;20.80;68.60;;;;;;4965641;29;20039;-55
2023/05/28 01:21:14;;;;;;;6.15;4.32;;;20.70;68.70;;;;;;4981578;28;20030;-55
2023/05/28 01:23:43;;;;;;;7.80;4.55;;;20.70;68.80;;;;;;4965624;28;20031;-55
2023/05/28 01:26:13;;;;;;;6.70;4.13;;;20.70;68.90;;;;;;4965528;29;20057;-55
2023/05/28 01:28:44;;;;;;;8.13;4.53;;;20.60;69.00;;;;;;4966902;28;20115;-55
2023/05/28 01:31:12;;;;;;;7.43;4.65;;;20.60;69.00;;;;;;4966958;29;20086;-55
2023/05/28 01:33:38;;;;;;;7.28;4.15;;;20.60;69.10;;;;;;4966902;29;20035;-55
2023/05/28 01:36:07;;;;;;;6.18;4.38;;;20.50;69.20;;;;;;4965540;29;20039;-55
2023/05/28 01:38:33;;;;;;;7.40;4.30;;;20.50;69.30;;;;;;4965226;28;20023;-55
2023/05/28 01:40:59;;;;;;;7.72;4.00;;;20.40;69.40;;;;;;4966938;29;20051;-55
2023/05/28 01:43:24;;;;;;;6.80;4.28;;;20.40;69.50;;;;;;4965752;29;20019;-55
2023/05/28 01:45:50;;;;;;;5.93;3.50;;;20.40;70.30;;;;;;4965268;29;20074;-55
2023/05/28 01:48:15;;;;;;;10.00;4.32;;;20.40;69.60;;;;;;4965284;29;20019;-55
2023/05/28 01:50:41;;;;;;;6.45;4.38;;;20.30;69.60;;;;;;4965563;29;20035;-54
2023/05/28 01:53:06;;;;;;;6.20;4.38;;;20.30;70.40;;;;;;4965000;29;20062;-55
2023/05/28 01:55:32;;;;;;;7.45;4.20;;;20.30;69.80;;;;;;4964759;28;20042;-54
2023/05/28 01:57:59;;;;;;;8.05;4.05;;;20.30;69.90;;;;;;4966917;29;20028;-54
2023/05/28 02:00:24;;;;;;;8.05;4.20;;;20.20;69.90;;;;;;4965468;29;20031;-55
2023/05/28 02:02:50;;;;;;;7.65;4.20;;;20.20;70.10;;;;;;4966700;28;20023;-55
2023/05/28 02:05:16;;;;;;;7.75;4.38;;;20.10;70.10;;;;;;4965357;29;20046;-55
2023/05/28 02:07:42;;;;;;;6.75;4.13;;;20.10;70.10;;;;;;4965016;29;20085;-55
2023/05/28 02:10:07;;;;;;;8.13;4.60;;;20.10;70.10;;;;;;4965163;29;20035;-55
2023/05/28 02:12:33;;;;;;;7.32;4.18;;;20.10;70.20;;;;;;4982954;28;20054;-55
2023/05/28 02:14:58;;;;;;;7.32;4.20;;;20.00;70.20;;;;;;4984739;28;20034;-55
2023/05/28 02:17:24;;;;;;;8.73;4.85;;;20.00;70.30;;;;;;4964777;28;20043;-54
2023/05/28 02:19:49;;;;;;;6.32;4.38;;;20.00;70.40;;;;;;4968698;28;20083;-54
2023/05/28 02:22:16;;;;;;;8.52;4.75;;;20.00;70.40;;;;;;4979663;28;20022;-55
2023/05/28 02:24:41;;;;;;;8.55;4.35;;;19.90;70.40;;;;;;4988157;28;20058;-55
2023/05/28 02:27:07;;;;;;;6.68;3.80;;;19.90;70.50;;;;;;4988316;28;20035;-55
2023/05/28 02:29:33;;;;;;;8.77;4.40;;;19.90;70.60;;;;;;4988202;28;20105;-55
2023/05/28 02:32:00;;;;;;;6.95;4.50;;;19.80;70.60;;;;;;4986544;28;20030;-55
2023/05/28 02:34:25;;;;;;;9.00;4.22;;;19.80;70.80;;;;;;4988557;28;20037;-55
2023/05/28 02:36:52;;;;;;;5.15;3.92;;;19.80;70.90;;;;;;4989555;28;20027;-54
2023/05/28 02:39:18;;;;;;;8.00;4.28;;;19.70;70.90;;;;;;4989214;28;20042;-55
2023/05/28 02:41:43;;;;;;;8.48;4.35;;;19.60;71.10;;;;;;4968088;28;20059;-55
2023/05/28 02:44:09;;;;;;;7.47;4.38;;;19.70;71.20;;;;;;4970166;28;20032;-55
2023/05/28 02:46:35;;;;;;;7.47;4.30;;;19.70;71.30;;;;;;4969894;28;20023;-55
2023/05/28 02:49:00;;;;;;;6.25;4.15;;;19.60;71.30;;;;;;4968810;29;20078;-55
2023/05/28 02:51:26;;;;;;;5.60;4.28;;;19.60;71.40;;;;;;4982685;28;20470;-55
2023/05/28 02:53:51;;;;;;;6.05;4.05;;;19.60;71.30;;;;;;4987966;28;20083;-55
2023/05/28 02:56:17;;;;;;;8.98;4.20;;;19.60;71.40;;;;;;4988975;28;20057;-55
2023/05/28 02:58:42;;;;;;;6.30;4.00;;;19.50;71.40;;;;;;4988159;28;20031;-55
2023/05/28 03:01:08;;;;;;;7.57;4.28;;;19.50;71.50;;;;;;4988968;28;20046;-55
2023/05/28 03:03:33;;;;;;;5.40;3.70;;;19.50;71.60;;;;;;4988026;28;20037;-55
2023/05/28 03:05:59;;;;;;;7.05;4.00;;;19.40;71.70;;;;;;4987752;28;20062;-55
2023/05/28 03:08:24;;;;;;;10.50;4.55;;;19.40;71.80;;;;;;4987603;28;20031;-55
2023/05/28 03:10:50;;;;;;;8.65;4.38;;;19.40;71.80;;;;;;4972166;28;20066;-55
2023/05/28 03:13:15;;;;;;;7.05;4.28;;;19.30;71.80;;;;;;4986621;28;20098;-54
2023/05/28 03:15:41;;;;;;;5.93;4.25;;;19.30;72.10;;;;;;4987301;28;20042;-55
2023/05/28 03:18:06;;;;;;;8.75;4.18;;;19.30;72.00;;;;;;4988414;28;20023;-55
2023/05/28 03:20:32;;;;;;;10.13;4.30;;;19.20;72.00;;;;;;4987252;28;20059;-55
2023/05/28 03:22:58;;;;;;;7.85;3.88;;;19.30;72.10;;;;;;4988957;28;20023;-55
2023/05/28 03:25:25;;;;;;;7.50;4.35;;;19.20;72.10;;;;;;4988515;28;20031;-55
2023/05/28 03:27:51;;;;;;;9.50;3.90;;;19.20;72.20;;;;;;4973401;28;20158;-54
2023/05/28 03:30:17;;;;;;;7.28;4.28;;;19.20;72.30;;;;;;4967654;28;20039;-55
2023/05/28 03:32:42;;;;;;;6.63;4.25;;;19.10;72.40;;;;;;4968872;28;20054;-55
2023/05/28 03:35:08;;;;;;;7.43;3.97;;;19.10;72.50;;;;;;5001973;28;20102;-54
2023/05/28 03:37:34;;;;;;;4.50;3.17;;;19.10;72.60;;;;;;4988459;28;20054;-55
2023/05/28 03:39:59;;;;;;;6.55;3.70;;;19.10;72.80;;;;;;4986712;28;20031;-55
2023/05/28 03:42:25;;;;;;;7.00;4.03;;;19.00;72.70;;;;;;4988498;28;20030;-55
2023/05/28 03:44:50;;;;;;;7.68;4.00;;;19.00;72.90;;;;;;4986770;28;20090;-55
2023/05/28 03:47:16;;;;;;;8.10;3.85;;;19.00;73.00;;;;;;4986429;28;20039;-55
2023/05/28 03:49:42;;;;;;;7.00;4.30;;;18.90;73.00;;;;;;4986804;28;20035;-55
2023/05/28 03:52:08;;;;;;;6.20;3.65;;;18.90;73.10;;;;;;4986654;28;20039;-54
2023/05/28 03:54:34;;;;;;;7.65;3.90;;;18.90;73.20;;;;;;4986546;28;20099;-55
2023/05/28 03:56:59;;;;;;;6.55;3.83;;;18.90;73.30;;;;;;4986671;28;20043;-55
2023/05/28 03:59:25;;;;;;;8.93;3.97;;;18.90;73.40;;;;;;4986472;28;20078;-55
2023/05/28 04:01:50;;;;;;;7.15;3.78;;;18.80;73.50;;;;;;4988123;28;20027;-55
2023/05/28 04:04:16;;;;;;;6.45;3.88;;;18.80;73.50;;;;;;4986299;28;20110;-55
2023/05/28 04:06:41;;;;;;;8.50;4.25;;;18.70;73.50;;;;;;4985463;28;20027;-55
2023/05/28 04:09:08;;;;;;;6.60;3.33;;;18.80;73.70;;;;;;4986730;28;20042;-54
2023/05/28 04:11:34;;;;;;;9.07;4.43;;;18.70;73.70;;;;;;4987669;28;20054;-55
2023/05/28 04:14:00;;;;;;;6.47;3.92;;;18.70;73.70;;;;;;4986442;28;20035;-55
2023/05/28 04:16:26;;;;;;;6.25;4.03;;;18.70;73.80;;;;;;4986279;28;20054;-54
2023/05/28 04:18:52;;;;;;;8.60;3.60;;;18.70;74.00;;;;;;4986242;28;20058;-54
2023/05/28 04:21:22;;;;;;;9.85;3.80;;;18.70;74.20;;;;;;4986165;28;20034;-55
2023/05/28 04:23:47;;;;;;;8.48;3.88;;;18.70;74.20;;;;;;4986080;28;20045;-55
2023/05/28 04:26:14;;;;;;;8.85;4.30;;;18.70;74.20;;;;;;4987453;28;20197;-55
2023/05/28 04:28:40;;;;;;;7.68;4.03;;;18.70;74.20;;;;;;4987439;28;20448;-55
2023/05/28 04:31:06;;;;;;;9.13;4.00;;;18.70;74.40;;;;;;4986059;28;20031;-55
2023/05/28 04:33:31;;;;;;;7.45;4.30;;;18.60;74.40;;;;;;4985871;28;20034;-55
2023/05/28 04:35:58;;;;;;;9.18;4.57;;;18.60;74.50;;;;;;4985866;28;20089;-54
2023/05/28 04:38:24;;;;;;;8.93;4.38;;;18.60;74.60;;;;;;4986492;28;20423;-55
2023/05/28 04:40:49;;;;;;;8.32;4.18;;;18.60;74.70;;;;;;4969623;28;20026;-55
2023/05/28 04:43:15;;;;;;;6.47;3.80;;;18.50;74.70;;;;;;4985279;28;20087;-55
2023/05/28 04:45:41;;;;;;;6.18;3.95;;;18.50;74.70;;;;;;4986971;28;20110;-55
2023/05/28 04:48:07;;;;;;;10.10;4.78;;;18.60;74.70;;;;;;4985526;28;20050;-54
2023/05/28 04:50:33;;;;;;;7.68;4.47;;;18.60;74.70;;;;;;4987464;28;20042;-54
2023/05/28 04:52:58;;;;;;;6.13;4.28;;;18.50;74.90;;;;;;4985711;28;20038;-54
2023/05/28 04:55:24;;;;;;;7.55;4.35;;;18.50;75.00;;;;;;4985217;28;20313;-54
2023/05/28 04:57:49;;;;;;;7.28;4.22;;;18.50;75.00;;;;;;4985547;28;20093;-55
2023/05/28 05:00:15;;;;;;;8.38;4.20;;;18.50;75.00;;;;;;4969219;28;20117;-56
2023/05/28 05:02:41;;;;;;;7.75;4.03;;;18.50;75.10;;;;;;4985344;28;20086;-55
2023/05/28 05:05:07;;;;;;;8.40;4.38;;;18.50;75.10;;;;;;4968894;28;20034;-55
2023/05/28 05:07:35;;;;;;;7.85;4.40;;;18.40;75.00;;;;;;4968381;28;20118;-55
2023/05/28 05:10:01;;;;;;;5.95;3.67;;;18.40;75.00;;;;;;4968957;28;20062;-55
2023/05/28 05:12:26;;;;;;;7.93;4.50;;;18.40;74.90;;;;;;4984428;28;20051;-55
2023/05/28 05:14:52;;;;;;;10.77;4.55;;;18.40;75.50;;;;;;4985094;28;20042;-55
2023/05/28 05:17:17;;;;;;;8.27;4.40;;;18.40;74.60;;;;;;4986435;28;20034;-55
2023/05/28 05:19:43;;;;;;;6.85;4.43;;;18.40;74.50;;;;;;4984749;28;20031;-54
2023/05/28 05:22:08;;;;;;;7.60;3.97;;;18.40;74.50;;;;;;4983551;28;20034;-55
2023/05/28 05:24:34;;;;;;;8.25;4.85;;;18.30;74.50;;;;;;4975617;28;20043;-54
2023/05/28 05:26:59;;;;;;;5.90;3.75;;;18.30;74.40;;;;;;4965485;29;20479;-55
2023/05/28 05:29:25;;;;;;;8.70;4.35;;;18.30;74.30;;;;;;4973594;28;20023;-54
2023/05/28 05:31:51;;;;;;;7.80;4.32;;;18.30;74.30;;;;;;4986062;28;20034;-55
2023/05/28 05:34:16;;;;;;;7.57;4.00;;;18.30;74.30;;;;;;4984593;28;20027;-55
2023/05/28 05:36:42;;;;;;;8.88;3.83;;;18.30;74.40;;;;;;4984586;28;20030;-55
2023/05/28 05:39:08;;;;;;;9.23;4.28;;;18.30;74.40;;;;;;4984224;28;20035;-55
2023/05/28 05:41:33;;;;;;;10.05;4.50;;;18.30;74.30;;;;;;4965258;28;20023;-54
2023/05/28 05:43:59;;;;;;;7.15;4.47;;;18.30;74.30;;;;;;4996309;28;20435;-55
2023/05/28 05:46:25;;;;;;;7.20;4.50;;;18.20;74.30;;;;;;4985932;28;20086;-54
2023/05/28 05:48:50;;;;;;;6.25;4.00;;;18.20;74.30;;;;;;4983697;28;20031;-55
2023/05/28 05:51:18;;;;;;;9.57;4.30;;;18.30;74.30;;;;;;4984410;28;20169;-55
2023/05/28 05:53:44;;;;;;;7.55;3.95;;;18.30;74.30;;;;;;4984918;28;20045;-55
2023/05/28 05:56:10;;;;;;;10.05;4.18;;;18.30;74.20;;;;;;4983750;28;20109;-55
2023/05/28 05:58:35;;;;;;;7.80;4.65;;;18.30;74.30;;;;;;4982419;28;20055;-55
2023/05/28 06:01:01;;;;;;;8.15;4.47;;;18.30;74.20;;;;;;4983785;28;20029;-55
2023/05/28 06:03:27;;;;;;;10.00;4.75;;;18.30;74.30;;;;;;4984145;28;20054;-55
2023/05/28 06:05:53;;;;;;;8.77;4.68;;;18.20;74.10;;;;;;4984097;28;20031;-54
2023/05/28 06:08:18;;;;;;;9.50;4.45;;;18.30;74.10;;;;;;4983658;28;20035;-55
2023/05/28 06:10:45;;;;;;;8.10;4.28;;;18.30;74.10;;;;;;4985367;28;20050;-55
2023/05/28 06:13:11;;;;;;;9.07;4.20;;;18.30;74.00;;;;;;4968228;28;20031;-55
2023/05/28 06:15:36;;;;;;;7.53;4.35;;;18.30;74.00;;;;;;4984238;28;20035;-55
2023/05/28 06:18:03;;;;;;;7.80;4.38;;;18.30;73.90;;;;;;4985114;28;20115;-55
2023/05/28 06:20:29;;;;;;;9.85;4.30;;;18.30;73.90;;;;;;4985567;28;20031;-55
2023/05/28 06:22:55;;;;;;;9.35;4.68;;;18.30;74.00;;;;;;4984194;28;20027;-55
2023/05/28 06:25:22;;;;;;;6.65;4.22;;;18.30;74.20;;;;;;4984396;28;20027;-55
2023/05/28 06:27:47;;;;;;;9.10;4.22;;;18.30;74.30;;;;;;4985550;28;20049;-55
2023/05/28 06:30:14;;;;;;;8.13;4.45;;;18.30;74.20;;;;;;4984264;28;20472;-54
2023/05/28 06:32:40;;;;;;;11.32;4.95;;;18.20;74.30;;;;;;4985779;28;20030;-55
2023/05/28 06:35:06;;;;;;;10.50;4.32;;;18.30;74.50;;;;;;4984413;28;20042;-55
2023/05/28 06:37:32;;;;;;;12.07;5.05;;;18.30;74.40;;;;;;4984178;28;20111;-54
2023/05/28 06:39:57;;;;;;;11.15;4.80;;;18.30;74.40;;;;;;4985442;28;20038;-55
2023/05/28 06:42:23;;;;;;;11.00;4.45;;;18.20;75.30;;;;;;4984198;28;20098;-55
2023/05/28 06:44:48;;;;;;;8.23;4.72;;;18.20;74.50;;;;;;4985314;28;20046;-55
2023/05/28 06:47:14;;;;;;;10.30;4.60;;;18.30;74.40;;;;;;4983736;28;20037;-55
2023/05/28 06:49:39;;;;;;;8.32;4.40;;;18.20;74.50;;;;;;4985106;28;20082;-55
2023/05/28 06:52:05;;;;;;;7.53;4.50;;;18.30;74.60;;;;;;4967670;28;20122;-55
2023/05/28 06:54:31;;;;;;;7.25;4.50;;;18.30;74.60;;;;;;4983804;28;20031;-55
2023/05/28 06:56:56;;;;;;;9.85;4.72;;;18.30;74.50;;;;;;4983997;28;20042;-55
2023/05/28 06:59:22;;;;;;;10.02;4.88;;;18.30;74.60;;;;;;4985534;28;20031;-55
2023/05/28 07:01:47;;;;;;;9.70;4.88;;;18.30;74.50;;;;;;4983954;28;20117;-55
2023/05/28 07:04:13;;;;;;;11.20;4.90;;;18.30;74.60;;;;;;4983979;28;20031;-55
2023/05/28 07:06:38;;;;;;;7.40;4.60;;;18.30;74.60;;;;;;4987431;28;20085;-55
2023/05/28 07:09:04;;;;;;;9.07;4.82;;;18.30;74.60;;;;;;4987566;28;20034;-55
2023/05/28 07:11:30;;;;;;;8.30;4.53;;;18.30;74.70;;;;;;4988717;28;20057;-55
2023/05/28 07:13:55;;;;;;;10.13;5.15;;;18.30;74.70;;;;;;4988857;28;20027;-55
2023/05/28 07:16:21;;;;;;;12.60;5.05;;;18.30;74.70;;;;;;4988418;28;20194;-55
2023/05/28 07:18:47;;;;;;;9.15;4.95;;;18.30;74.60;;;;;;4987226;28;20046;-55
2023/05/28 07:21:13;;;;;;;10.93;4.60;;;18.30;74.60;;;;;;4988370;28;20087;-55
2023/05/28 07:23:39;;;;;;;10.85;4.70;;;18.40;74.60;;;;;;4987152;28;20030;-55
2023/05/28 07:26:04;;;;;;;9.48;4.65;;;18.40;74.50;;;;;;4987049;28;20050;-55
2023/05/28 07:28:30;;;;;;;7.97;4.55;;;18.30;74.60;;;;;;4988542;28;20054;-54
2023/05/28 07:30:56;;;;;;;7.53;4.68;;;18.40;74.50;;;;;;4987037;28;20043;-55
2023/05/28 07:33:22;;;;;;;6.60;4.60;;;18.40;74.60;;;;;;4988458;28;20030;-53
2023/05/28 07:35:47;;;;;;;8.15;3.80;;;18.40;74.60;;;;;;4988015;28;20482;-55
2023/05/28 07:38:14;;;;;;;10.82;4.70;;;18.40;74.60;;;;;;4988937;28;20089;-55
2023/05/28 07:40:40;;;;;;;12.45;4.85;;;18.40;74.50;;;;;;4987549;28;20035;-55
2023/05/28 07:43:05;;;;;;;10.68;4.75;;;18.40;74.50;;;;;;4987137;28;20023;-55
2023/05/28 07:45:31;;;;;;;8.48;4.68;;;18.40;74.60;;;;;;4988260;28;20502;-54
2023/05/28 07:47:56;;;;;;;8.68;4.07;;;18.40;74.50;;;;;;4986969;28;20038;-54
2023/05/28 07:50:22;;;;;;;7.05;4.22;;;18.40;74.40;;;;;;4988320;28;20149;-54
2023/05/28 07:52:48;;;;;;;9.27;4.50;;;18.50;74.40;;;;;;4986600;28;20050;-55
2023/05/28 07:55:13;;;;;;;8.60;4.45;;;18.50;74.40;;;;;;4986580;28;20050;-54
2023/05/28 07:57:39;;;;;;;8.63;4.22;;;18.50;74.60;;;;;;4986623;28;20038;-55
2023/05/28 08:00:06;;;;;;;8.88;4.40;;;18.50;74.50;;;;;;4987887;28;20041;-55
2023/05/28 08:02:33;;;;;;;8.70;4.72;;;18.50;74.50;;;;;;4986586;28;20022;-55
2023/05/28 08:05:00;;;;;;;7.95;4.65;;;18.50;74.30;;;;;;4986541;28;20039;-55
2023/05/28 08:07:26;;;;;;;9.43;4.75;;;18.50;74.30;;;;;;4970419;28;20049;-55
2023/05/28 08:09:52;;;;;;;10.10;4.60;;;18.50;74.20;;;;;;4986269;28;20045;-55
2023/05/28 08:12:17;;;;;;;7.40;4.53;;;18.60;74.30;;;;;;4985996;28;20030;-55
2023/05/28 08:14:43;;;;;;;9.57;4.72;;;18.50;74.20;;;;;;4986349;28;20058;-54
2023/05/28 08:17:08;;;;;;;14.15;4.18;;;18.50;74.10;;;;;;4985179;28;20472;-55
2023/05/28 08:19:35;;;;;;;9.43;4.28;;;18.60;74.10;;;;;;4970115;28;20507;-55
2023/05/28 08:22:00;;;;;;;16.02;5.07;;;18.60;74.10;;;;;;4985947;28;20107;-55
2023/05/28 08:24:26;;;;;;;9.85;5.00;;;18.60;74.20;;;;;;4986343;28;20147;-55
2023/05/28 08:26:51;;;;;;;10.25;4.22;;;18.60;74.20;;;;;;4969328;28;20026;-54
2023/05/28 08:29:17;;;;;;;10.25;4.50;;;18.60;74.10;;;;;;4986076;28;20059;-55
2023/05/28 08:31:43;;;;;;;10.02;4.93;;;18.60;74.10;;;;;;4986098;28;20109;-55
2023/05/28 08:34:08;;;;;;;8.52;4.78;;;18.60;74.10;;;;;;4987063;28;20035;-55
2023/05/28 08:36:35;;;;;;;10.65;4.95;;;18.60;74.20;;;;;;4985498;28;20063;-54
2023/05/28 08:39:00;;;;;;;9.80;4.55;;;18.60;74.00;;;;;;4969722;28;20122;-55
2023/05/28 08:41:26;;;;;;;10.10;4.78;;;18.70;74.10;;;;;;4986955;28;20038;-55
2023/05/28 08:43:52;;;;;;;11.43;5.00;;;18.60;74.10;;;;;;4985609;28;20038;-55
2023/05/28 08:46:18;;;;;;;22.48;5.72;;;18.60;74.10;;;;;;4985411;28;20031;-55
2023/05/28 08:48:43;;;;;;;14.63;5.70;;;18.70;74.20;;;;;;4986837;28;20035;-55
2023/05/28 08:51:09;;;;;;;19.35;6.00;;;18.70;74.10;;;;;;4951946;28;20055;-55
2023/05/28 08:53:45;;;;;;;30.45;7.60;;;18.70;74.10;;;;;;4967387;28;20117;-55
2023/05/28 08:56:11;;;;;;;33.45;7.75;;;18.70;74.10;;;;;;4986012;28;20069;-54
2023/05/28 08:58:38;;;;;;;24.33;6.68;;;18.70;74.30;;;;;;4969005;28;20030;-55
2023/05/28 09:01:06;;;;;;;32.53;8.07;;;18.70;74.30;;;;;;4951435;28;20114;-55
2023/05/28 09:03:33;;;;;;;34.33;7.60;;;18.80;74.30;;;;;;4967267;28;20033;-55
2023/05/28 09:05:58;;;;;;;33.38;7.50;;;18.80;74.70;;;;;;4982912;28;20098;-55
2023/05/28 09:08:24;;;;;;;46.70;8.65;;;18.80;74.70;;;;;;4984585;28;20034;-55
2023/05/28 09:10:49;;;;;;;45.17;8.10;;;18.90;74.80;;;;;;4950164;28;20511;-55
2023/05/28 09:13:16;;;;;;;48.10;8.52;;;18.90;74.80;;;;;;4983454;28;20034;-55
2023/05/28 09:15:42;;;;;;;34.60;8.13;;;19.00;74.90;;;;;;4984095;28;20035;-55
2023/05/28 09:18:07;;;;;;;32.50;7.90;;;19.00;75.00;;;;;;4986161;28;20057;-55
2023/05/28 09:20:33;;;;;;;64.20;10.63;;;19.00;74.90;;;;;;4984441;28;20058;-55
2023/05/28 09:23:03;;;;;;;44.65;7.88;;;19.10;74.90;;;;;;4984929;28;20037;-55
2023/05/28 09:25:32;;;;;;;157.50;17.63;;;19.20;75.20;;;;;;4984592;28;20041;-55
2023/05/28 09:27:58;;;;;;;66.93;10.10;;;19.20;75.10;;;;;;4984563;28;20027;-55
2023/05/28 09:30:24;;;;;;;51.20;9.60;;;19.20;75.30;;;;;;4984748;28;20057;-54
2023/05/28 09:32:58;;;;;;;64.72;9.80;;;19.20;75.20;;;;;;4984858;28;20042;-55
2023/05/28 09:35:25;;;;;;;54.88;9.55;;;19.30;75.30;;;;;;4984181;28;20039;-55
2023/05/28 09:37:59;;;;;;;62.60;10.30;;;19.30;75.20;;;;;;4984719;28;20026;-55
2023/05/28 09:40:25;;;;;;;48.10;9.55;;;19.30;75.30;;;;;;4984476;28;20034;-55
2023/05/28 09:42:51;;;;;;;72.63;11.10;;;19.40;75.40;;;;;;4984514;28;20026;-55
2023/05/28 09:45:23;;;;;;;58.50;11.75;;;19.40;75.50;;;;;;4984969;28;20034;-55
2023/05/28 09:47:48;;;;;;;58.80;11.40;;;19.50;75.30;;;;;;4985012;28;20058;-54
2023/05/28 09:50:14;;;;;;;63.42;12.55;;;19.50;75.30;;;;;;4983193;28;20456;-55
2023/05/28 09:52:40;;;;;;;68.10;12.95;;;19.60;75.40;;;;;;4983057;28;20471;-55
2023/05/28 09:55:07;;;;;;;49.33;11.43;;;19.60;75.30;;;;;;4983897;28;20055;-55
2023/05/28 09:57:33;;;;;;;72.28;11.05;;;19.60;75.10;;;;;;4984895;28;20077;-55
2023/05/28 09:59:59;;;;;;;54.03;9.82;;;19.70;75.00;;;;;;4985645;28;20107;-55
2023/05/28 10:02:28;;;;;;;73.50;10.63;;;19.70;75.00;;;;;;4983782;28;20046;-55
2023/05/28 10:04:57;;;;;;;68.00;10.85;;;19.80;75.10;;;;;;4985613;28;20044;-55
2023/05/28 10:07:24;;;;;;;71.28;11.73;;;19.80;74.90;;;;;;4983023;28;20085;-55
2023/05/28 10:09:50;;;;;;;60.90;11.18;;;19.90;74.90;;;;;;4982563;28;20034;-55
2023/05/28 10:12:23;;;;;;;57.47;10.90;;;19.90;75.50;;;;;;4982619;28;20538;-55
2023/05/28 10:14:48;;;;;;;53.58;11.27;;;19.90;74.60;;;;;;4966526;28;20034;-55
2023/05/28 10:17:14;;;;;;;52.97;10.18;;;19.90;74.70;;;;;;4982539;28;20317;-55
2023/05/28 10:19:40;;;;;;;63.95;10.48;;;20.00;74.70;;;;;;4983641;28;20027;-55
2023/05/28 10:22:05;;;;;;;50.80;9.75;;;20.00;74.70;;;;;;4985831;28;20047;-55
2023/05/28 10:24:31;;;;;;;63.83;10.50;;;20.00;74.50;;;;;;4984049;28;20023;-55
2023/05/28 10:26:57;;;;;;;63.75;10.95;;;20.10;75.20;;;;;;4980527;28;20034;-55
2023/05/28 10:29:22;;;;;;;76.97;11.45;;;20.10;74.60;;;;;;5004528;28;20027;-54
2023/05/28 10:32:00;;;;;;;75.45;12.13;;;20.20;74.60;;;;;;4995853;28;20033;-55
2023/05/28 10:34:32;;;;;;;66.65;10.30;;;20.20;74.50;;;;;;4976570;28;20105;-55
2023/05/28 10:37:01;;;;;;;51.08;10.48;;;20.30;74.50;;;;;;5003452;28;20121;-55
2023/05/28 10:39:26;;;;;;;75.38;12.38;;;20.40;74.40;;;;;;4999159;28;20045;-55
2023/05/28 10:41:54;;;;;;;68.75;11.27;;;20.40;74.20;;;;;;4987830;28;20091;-55
2023/05/28 10:44:20;;;;;;;65.35;11.07;;;20.50;74.20;;;;;;4988173;28;20031;-55
2023/05/28 10:46:46;;;;;;;82.90;12.35;;;20.50;74.00;;;;;;4987799;28;20026;-55
2023/05/28 10:49:16;;;;;;;81.30;10.45;;;20.60;73.90;;;;;;5004015;28;20098;-54
2023/05/28 10:51:59;;;;;;;56.15;10.18;;;20.70;73.90;;;;;;4993070;28;20065;-55
2023/05/28 10:54:37;;;;;;;74.63;11.90;;;20.70;73.70;;;;;;5000672;28;20042;-55
2023/05/28 10:57:12;;;;;;;147.88;15.68;;;20.80;73.60;;;;;;5006355;28;20042;-55
2023/05/28 10:59:57;;;;;;;83.50;13.40;;;20.90;73.50;;;;;;4999266;28;20086;-55
2023/05/28 11:02:26;;;;;;;89.95;13.25;;;21.00;73.30;;;;;;4999268;28;20019;-55
2023/05/28 11:04:56;;;;;;;96.05;13.63;;;21.10;72.90;;;;;;4986034;28;20046;-55
2023/05/28 11:07:22;;;;;;;79.30;12.20;;;21.20;72.70;;;;;;4986307;28;20039;-55
2023/05/28 11:09:51;;;;;;;89.45;11.52;;;21.30;72.20;;;;;;4999492;28;20038;-55
2023/05/28 11:12:19;;;;;;;90.20;13.27;;;21.40;72.00;;;;;;5005959;28;20030;-55
2023/05/28 11:14:44;;;;;;;73.65;13.52;;;21.40;71.80;;;;;;4993429;28;20065;-55
2023/05/28 11:17:13;;;;;;;100.30;14.65;;;21.60;71.30;;;;;;4987688;28;20036;-55
2023/05/28 11:19:45;;;;;;;89.22;15.18;;;21.60;71.00;;;;;;4997205;28;20034;-55
2023/05/28 11:22:12;;;;;;;80.00;12.50;;;21.80;70.60;;;;;;5005573;28;20026;-55
2023/05/28 11:25:04;;;;;;;68.90;12.00;;;21.80;70.40;;;;;;4981791;28;20030;-55
2023/05/28 11:27:30;;;;;;;93.10;13.98;;;21.90;69.90;;;;;;4987954;28;20371;-55
2023/05/28 11:30:02;;;;;;;77.43;12.73;;;22.00;69.00;;;;;;4993295;28;20058;-55
2023/05/28 11:32:28;;;;;;;107.50;16.35;;;22.00;68.80;;;;;;5003547;28;20054;-55
2023/05/28 11:34:54;;;;;;;76.93;13.30;;;22.10;68.40;;;;;;4967760;28;20034;-55
2023/05/28 11:37:34;;;;;;;120.22;17.33;;;22.20;68.30;;;;;;4986135;28;20023;-55
2023/05/28 11:40:00;;;;;;;95.22;14.68;;;22.30;68.60;;;;;;5001110;28;20359;-54
2023/05/28 11:42:31;;;;;;;156.10;19.25;;;22.40;68.30;;;;;;4994046;28;20392;-55
2023/05/28 11:44:57;;;;;;;118.72;15.75;;;22.40;68.20;;;;;;4984517;28;20090;-55
2023/05/28 11:47:23;;;;;;;125.43;13.50;;;22.50;68.60;;;;;;4985475;28;20034;-55
2023/05/28 11:49:49;;;;;;;123.03;16.00;;;22.60;67.50;;;;;;4990990;28;20035;-55
2023/05/28 11:52:15;;;;;;;91.30;12.35;;;22.70;67.60;;;;;;4997348;28;20043;-55
2023/05/28 11:54:41;;;;;;;93.03;14.48;;;22.80;66.80;;;;;;4999309;28;20042;-55
2023/05/28 11:57:07;;;;;;;102.47;13.13;;;22.80;66.80;;;;;;4966953;28;20035;-55
2023/05/28 11:59:34;;;;;;;105.28;15.88;;;22.90;66.70;;;;;;4994583;28;20027;-55
2023/05/28 12:02:14;;;;;;;97.47;14.80;;;23.00;66.90;;;;;;4991359;28;20027;-55
2023/05/28 12:04:40;;;;;;;108.63;14.05;;;23.10;66.80;;;;;;5001232;28;20019;-55
2023/05/28 12:07:05;;;;;;;91.55;13.07;;;23.20;66.70;;;;;;4969911;28;20109;-55
2023/05/28 12:09:32;;;;;;;120.15;15.50;;;23.20;66.30;;;;;;4970146;28;20129;-54
2023/05/28 12:12:11;;;;;;;106.78;13.73;;;23.30;66.30;;;;;;4990949;28;20081;-55
2023/05/28 12:14:37;;;;;;;91.30;15.02;;;23.40;66.10;;;;;;4985971;28;20169;-55
2023/05/28 12:17:10;;;;;;;102.85;14.13;;;23.50;65.80;;;;;;4985165;28;20027;-55
2023/05/28 12:19:35;;;;;;;111.82;14.88;;;23.50;65.70;;;;;;4988378;28;20038;-55
2023/05/28 12:22:02;;;;;;;106.80;13.90;;;23.60;65.50;;;;;;4986626;28;20085;-55
2023/05/28 12:24:27;;;;;;;104.43;14.90;;;23.70;65.50;;;;;;4989211;28;20034;-55
2023/05/28 12:26:53;;;;;;;108.70;16.83;;;23.80;65.70;;;;;;4999389;28;20030;-55
2023/05/28 12:29:19;;;;;;;68.47;12.80;;;23.90;65.50;;;;;;4986870;28;20038;-55
2023/05/28 12:31:44;;;;;;;81.40;12.43;;;23.90;65.00;;;;;;5015574;28;20085;-55
2023/05/28 12:34:10;;;;;;;77.85;13.15;;;24.00;64.80;;;;;;4983426;28;20081;-55
2023/05/28 12:36:36;;;;;;;87.88;12.95;;;24.00;64.70;;;;;;4983353;28;20037;-55